Terminal Aerodrome Forecast
Issued by NWS Cleveland, OH

Home | Current Version | Previous Version | Graphics & Text | Print | Product List | Glossary On
Versions: 1 2 3 4 5 6 7 8 9 10 11 12 13 14 15 16 17 18 19 20 21 22 23 24 25 26 27 28 29 30 31 32 33 34 35 36 37 38 39
000
FTUS41 KCLE 172300
TAFCLE
TAF
KCLE 172340Z 1800/1906 25012KT P6SM VCSH SCT050 OVC070
     FM180300 26014G22KT P6SM -SHRA SCT015 OVC025
      TEMPO 1804/1808 26015KT 5SM -SHRA BKN018
     FM180800 29012G22KT 6SM -SHRA BR SCT009 OVC015
     FM181600 30015G22KT P6SM VCSH OVC025
     FM182100 30014KT P6SM OVC035=

USA.gov is the U.S. government's official web portal to all federal, state and local government web resources and services.